Warm Springs Summit, Nevada Weather observations

Data are for observation ending at time listed.
 Day   Time    Ave.   Ave.  Ave.  Vector   Max.   Stn.    Total    Solar   Ave.  
  of    of     Air    Rel.  Wind   Wind    Wind   Baro.  Precip.   Rad.    Soil  
Year   Day     Temp.  Hum.  Speed  Dir.    Gust   Pres.                    Temp. 
2014   (PST)    F      %     mph   deg.    mph     mb.     in.     W/m2     F   
------------------------------------------------------------------------------
 355   14:40   48.2    52   11.3   339     19.6   773.5    0.00     140    40.0
 355   14:50   47.9    53   11.5   335     17.9   773.8    0.00     123    40.1
 355   15:00   47.7    54   12.6   331     21.8   773.9    0.00     108    40.3
 355   15:10   47.4    54   13.8   333     21.7   773.9    0.00     116    40.4
 355   15:20   47.2    55   11.1   334     17.1   773.9    0.00     116    40.5
 355   15:30   47.0    56   11.5   317     19.5   773.9    0.00      98    40.6
 355   15:40   46.7    57    8.8   318     14.4   774.2    0.00      66    40.7
 355   15:50   45.8    60   14.8   303     19.5   774.0    0.00      43    40.8
 355   16:00   45.5    61   14.5   277     21.7   773.7    0.00      25    40.9
 355   16:10   45.1    62   13.0   274     19.1   774.0    0.00      12    40.9
 355   16:20   44.9    63   15.8   289     24.5   774.1    0.00       5    41.0
 355   16:30   44.6    63   16.0   290     21.2   774.1    0.00       2    41.0
 355   16:40   44.7    63   17.3   298     22.8   774.1    0.00       1    41.1
 355   16:50   44.4    64   13.6   286     21.9   774.1    0.00       0    41.1
 355   17:00   44.2    64   18.3   261     27.5   774.0    0.00       0    41.1
 355   17:10   44.3    64   16.4   245     30.0   774.3    0.00       0    41.1
 355   17:20   43.8    65   12.4   270     22.3   774.2    0.00       0    41.1
 355   17:30   44.2    63   13.6   296     26.6   774.1    0.00       0    41.1
 355   17:40   44.2    64   15.7   292     22.5   774.2    0.00       0    41.1
 355   17:50   42.7    69   13.1   268     20.6   774.2    0.00       0    41.1
 355   18:00   41.6    72   17.0   275     23.1   773.9    0.00       0    41.1
 355   18:10   41.2    73   17.3   283     21.5   773.8    0.00       0    41.1
 355   18:20   40.9    74   19.6   286     24.3   773.7    0.00       0    41.1
 355   18:30   41.1    74   21.2   293     28.6   773.9    0.00       0    41.1
 355   18:40   41.4    72   24.2   302     31.7   773.9    0.00       0    41.0
 355   18:50   41.4    73   22.4   302     30.1   774.0    0.00       0    41.0
 355   19:00   41.5    72   20.9   304     25.6   773.9    0.00       0    41.0
 355   19:10   42.2    70   16.6   310     25.2   774.2    0.00       0    40.9
 355   19:20   41.5    72   19.7   300     25.4   774.3    0.00       0    40.9
 355   19:30   40.5    76   19.0   299     24.5   774.5    0.00       0    40.8
 355   19:40   40.5    75   14.4   289     23.2   774.8    0.00       0    40.8
 355   19:50   40.4    75   10.7   267     17.1   775.0    0.00       0    40.8
 355   20:00   39.2    80    5.9   219     12.3   775.0    0.00       0    40.7
 355   20:10   39.7    78    8.7   222     14.3   775.1    0.00       0    40.7
 355   20:20   40.0    78    8.9   230     17.2   775.1    0.00       0    40.6
 355   20:30   40.2    78   10.1   225     15.5   775.2    0.00       0    40.6
 355   20:40   40.7    76   12.2   227     20.7   775.1    0.00       0    40.6
 355   20:50   40.5    76   13.9   239     22.3   775.0    0.00       0    40.5
 355   21:00   40.6    76   16.9   237     25.3   774.8    0.00       0    40.5
 355   21:10   40.4    76   21.5   249     27.4   774.6    0.00       0    40.4
 355   21:20   40.2    77   21.9   249     26.7   774.5    0.00       0    40.4
 355   21:30   39.5    79   18.8   259     25.9   774.8    0.00       0    40.3
 355   21:40   39.0    80   17.9   259     20.9   774.9    0.00       0    40.3
 355   21:50   38.7    81   18.9   255     21.7   774.9    0.00       0    40.2
 355   22:00   38.4    82   18.2   254     23.7   774.9    0.00       0    40.2
 355   22:10   38.6    82   17.3   249     20.5   775.0    0.00       0    40.1
 355   22:20   38.4    83   17.8   245     21.9   774.8    0.00       0    40.1
 355   22:30   38.0    84   15.9   246     21.9   774.8    0.00       0    40.1
 355   22:40   36.5    88   13.8   260     16.9   774.7    0.00       0    40.0
 355   22:50   36.8    86   14.9   276     19.3   774.6    0.00       0    40.0
 355   23:00   37.5    83   16.9   285     23.5   774.5    0.00       0    39.9
 355   23:10   37.7    83   19.9   283     26.2   774.4    0.00       0    39.9
 355   23:20   37.3    84   14.9   286     21.8   774.7    0.00       0    39.8
 355   23:30   37.3    84   14.7   280     20.3   774.7    0.00       0    39.8
 355   23:40   37.4    83   17.0   287     23.4   774.6    0.00       0    39.7
 355   23:50   37.4    82   18.0   284     22.0   774.6    0.00       0    39.7
 356    0:00   37.5    82   17.0   287     21.8   774.7    0.00       0    39.7
 356    0:10   37.8    81   14.8   288     18.7   774.9    0.00       0    39.6
 356    0:20   37.1    84   10.9   272     13.8   774.9    0.00       0    39.6
 356    0:30   36.3    87    8.2   259     12.0   774.9    0.00       0    39.5
 356    0:40   37.6    82    8.7   270     15.1   774.8    0.00       0    39.5
 356    0:50   36.7    86    9.0   264     15.1   774.7    0.00       0    39.4
 356    1:00   36.0    90   11.1   255     16.6   774.7    0.00       0    39.4
 356    1:10   35.9    90   10.4   241     13.6   774.7    0.00       0    39.3
 356    1:20   36.2    89    8.6   223     13.7   774.8    0.00       0    39.3
 356    1:30   36.1    88    9.2   243     12.8   774.9    0.00       0    39.2
 356    1:40   36.1    87   11.2   242     15.0   774.9    0.00       0    39.2
 356    1:50   35.9    88   11.2   247     13.9   775.0    0.00       0    39.1
 356    2:00   35.6    89   13.1   245     16.4   775.0    0.00       0    39.1
 356    2:10   35.7    91   11.9   233     14.6   775.1    0.00       0    39.0
 356    2:20   35.4    92   12.4   230     16.0   775.0    0.00       0    39.0
 356    2:30   35.2    93   12.4   244     15.9   774.9    0.00       0    38.9
 356    2:40   35.1    93   10.7   242     13.1   775.0    0.00       0    38.9
 356    2:50   35.2    92   10.8   248     14.4   774.8    0.00       0    38.8
 356    3:00   34.6    93   14.3   259     17.4   774.6    0.00       0    38.8
 356    3:10   33.8    95   16.8   264     19.7   774.2    0.00       0    38.7
 356    3:20   33.4    96   15.3   259     18.5   774.3    0.00       0    38.7
 356    3:30   33.6    96   17.3   276     22.3   774.2    0.00       0    38.6
 356    3:40   34.0    95   14.3   275     18.2   774.2    0.00       0    38.6
 356    3:50   34.0    94   15.1   280     18.2   774.2    0.00       0    38.5
 356    4:00   34.2    93   15.4   275     19.0   774.2    0.00       0    38.5
 356    4:10   33.9    94   15.4   274     18.3   774.2    0.00       0    38.4
 356    4:20   33.4    95   13.0   263     14.0   774.3    0.00       0    38.4
 356    4:30   33.0    96   13.2   260     15.4   774.3    0.00       0    38.4
 356    4:40   32.8    97   15.0   264     18.3   774.0    0.00       0    38.3
 356    4:50   32.6    97   17.3   271     19.6   773.9    0.00       0    38.3
 356    5:00   32.4    97   20.2   274     25.2   773.7    0.00       0    38.2
 356    5:10   32.7    97   23.9   282     27.1   773.5    0.00       0    38.2
 356    5:20   33.5    97   23.9   284     28.0   773.6    0.00       0    38.1
 356    5:30   34.4    91   25.4   282     29.2   773.5    0.00       0    38.1
 356    5:40   35.5    86   26.6   279     30.2   773.3    0.00       0    38.1
 356    5:50   36.6    82   25.3   279     31.0   773.3    0.00       0    38.0
 356    6:00   35.9    83   22.4   281     25.0   773.4    0.00       0    38.0
 356    6:10   34.4    89   21.7   278     24.3   773.2    0.00       0    38.0
 356    6:20   33.7    91   20.9   279     23.1   773.3    0.00       0    37.9
 356    6:30   33.5    92   23.0   275     28.0   773.2    0.00       0    37.9
 356    6:40   33.3    92   24.8   274     29.8   773.1    0.00       1    37.9
 356    6:50   33.0    93   24.2   272     27.6   773.2    0.00       2    37.8
 356    7:00   33.1    93   22.1   273     25.3   773.5    0.00       5    37.8
 356    7:10   33.3    93   20.0   278     22.4   773.7    0.00      12    37.8
 356    7:20   33.5    92   20.0   276     22.9   773.8    0.00      28    37.7
 356    7:30   33.8    91   20.5   275     24.5   773.9    0.00      50    37.7
 356    7:40   34.2    90   19.6   275     23.4   774.0    0.00      78    37.7
 356    7:50   34.4    90   17.5   280     20.4   774.0    0.00     111    37.7
 356    8:00   34.6    89   15.9   284     18.5   774.1    0.00     142    37.6
 356    8:10   34.7    89   16.7   292     19.4   774.0    0.00     168    37.6
 356    8:20   34.8    89   17.2   293     19.8   774.0    0.00     193    37.6
 356    8:30   34.8    89   17.1   294     19.3   774.1    0.00     218    37.6
 356    8:40   35.3    88   17.4   296     19.4   774.1    0.00     242    37.6
 356    8:50   38.5    75   17.4   309     24.2   774.0    0.00     267    37.6
 356    9:00   41.1    66   17.5   313     23.5   774.1    0.00     292    37.6
 356    9:10   42.3    63   16.9   318     26.9   774.1    0.00     316    37.6
 356    9:20   42.5    64   16.4   317     24.6   774.3    0.00     338    37.6
 356    9:30   42.4    64   19.1   310     28.5   774.5    0.00     362    37.6
 356    9:40   43.0    62   17.5   314     26.1   774.7    0.00     382    37.7
 356    9:50   43.1    62   17.8   317     28.6   774.8    0.00     399    37.7
 356   10:00   42.8    64   17.1   314     28.9   774.9    0.00     418    37.8
 356   10:10   43.0    66   16.1   302     27.5   774.9    0.00     434    37.8
 356   10:20   43.4    64   15.7   308     25.9   774.8    0.00     450    37.9
 356   10:30   43.8    63   13.4   308     26.1   774.8    0.00     463    38.0
 356   10:40   44.1    62   14.4   302     28.0   774.6    0.00     475    38.1
 356   10:50   44.5    62   12.2   288     19.6   774.5    0.00     482    38.3
 356   11:00   44.9    61   14.7   290     22.0   774.5    0.00     495    38.4
 356   11:10   45.2    61   13.4   284     21.8   774.4    0.00     502    38.5
 356   11:20   44.9    62   16.7   280     24.0   774.2    0.00     507    38.7
 356   11:30   45.7    60   16.4   291     21.7   774.1    0.00     512    38.8
 356   11:40   46.9    56   14.2   309     24.1   774.2    0.00     504    39.0
 356   11:50   47.1    55   14.8   306     21.4   774.1    0.00     513    39.2
 356   12:00   48.0    52    8.9   325     18.1   774.0    0.00     510    39.4
 356   12:10   48.3    53   14.5   303     21.1   773.8    0.00     507    39.6
 356   12:20   48.1    52   12.5   312     23.0   774.0    0.00     504    39.8
 356   12:30   48.2    50   10.6   323     18.2   774.0    0.00     498    40.0
 356   12:40   48.7    49    9.1   338     18.8   773.9    0.00     492    40.2
 356   12:50   48.1    48   14.5   332     21.2   773.7    0.00     481    40.4
 356   13:00   48.1    47   14.8   341     24.5   773.7    0.00     471    40.6
 356   13:10   47.8    46   19.0   342     28.6   773.5    0.00     463    40.8
 356   13:20   48.3    43   17.6   346     33.5   773.5    0.00     455    41.0
 356   13:30   48.7    42   15.8   347     30.2   773.6    0.00     448    41.2
 356   13:40   48.8    41   16.1   346     29.1   773.6    0.00     432    41.5
 356   13:50   48.8    42   12.8   344     26.3   773.6    0.00     402    41.7
 356   14:00   49.1    42   12.2   340     26.4   773.7    0.00     380    41.8
 356   14:10   48.1    44   16.6   331     25.7   773.4    0.00     351    42.0
 356   14:20   47.5    46   15.1   326     23.2   773.5    0.00     329    42.2
 356   14:30   47.3    48   15.1   328     21.0   773.6    0.00     308    42.4

Return to Warm Springs Summit, Nevada graphs page.


Western Regional Climate Center,wrcc@dri.edu